sensor_id;sensor_type;location;lat;lon;timestamp;P1;P2;P0
59546;PMS5003;45368;55.002;-1.592;2023-04-03T00:00:42;6;5;
59546;PMS5003;45368;55.002;-1.592;2023-04-03T00:03:09;6;6;
59546;PMS5003;45368;55.002;-1.592;2023-04-03T00:05:37;9;8;
59546;PMS5003;45368;55.002;-1.592;2023-04-03T00:08:04;11;10;
59546;PMS5003;45368;55.002;-1.592;2023-04-03T00:10:32;7;7;
59546;PMS5003;45368;55.002;-1.592;2023-04-03T00:12:59;8;7;
59546;PMS5003;45368;55.002;-1.592;2023-04-03T00:15:27;10;7;
59546;PMS5003;45368;55.002;-1.592;2023-04-03T00:17:55;6;6;
59546;PMS5003;45368;55.002;-1.592;2023-04-03T00:20:22;8;7;
59546;PMS5003;45368;55.002;-1.592;2023-04-03T00:22:50;8;6;
59546;PMS5003;45368;55.002;-1.592;2023-04-03T00:25:17;9;7;
59546;PMS5003;45368;55.002;-1.592;2023-04-03T00:27:45;8;7;
59546;PMS5003;45368;55.002;-1.592;2023-04-03T00:30:13;7;7;
59546;PMS5003;45368;55.002;-1.592;2023-04-03T00:32:43;9;7;
59546;PMS5003;45368;55.002;-1.592;2023-04-03T00:35:11;9;7;
59546;PMS5003;45368;55.002;-1.592;2023-04-03T00:37:37;10;8;
59546;PMS5003;45368;55.002;-1.592;2023-04-03T00:40:05;9;8;
59546;PMS5003;45368;55.002;-1.592;2023-04-03T00:42:33;7;6;
59546;PMS5003;45368;55.002;-1.592;2023-04-03T00:45:25;7;6;
59546;PMS5003;45368;55.002;-1.592;2023-04-03T00:47:58;9;7;
59546;PMS5003;45368;55.002;-1.592;2023-04-03T00:50:27;9;6;
59546;PMS5003;45368;55.002;-1.592;2023-04-03T00:52:56;5;5;
59546;PMS5003;45368;55.002;-1.592;2023-04-03T00:55:23;7;6;
59546;PMS5003;45368;55.002;-1.592;2023-04-03T00:57:51;5;5;
59546;PMS5003;45368;55.002;-1.592;2023-04-03T01:00:20;9;6;
59546;PMS5003;45368;55.002;-1.592;2023-04-03T01:02:49;7;6;
59546;PMS5003;45368;55.002;-1.592;2023-04-03T01:05:18;9;7;
59546;PMS5003;45368;55.002;-1.592;2023-04-03T01:07:47;7;6;
59546;PMS5003;45368;55.002;-1.592;2023-04-03T01:10:18;10;8;
59546;PMS5003;45368;55.002;-1.592;2023-04-03T01:12:46;7;7;
59546;PMS5003;45368;55.002;-1.592;2023-04-03T01:15:16;8;4;
59546;PMS5003;45368;55.002;-1.592;2023-04-03T01:17:46;6;6;
59546;PMS5003;45368;55.002;-1.592;2023-04-03T01:20:53;10;7;
59546;PMS5003;45368;55.002;-1.592;2023-04-03T01:23:41;8;8;
59546;PMS5003;45368;55.002;-1.592;2023-04-03T01:26:17;12;11;
59546;PMS5003;45368;55.002;-1.592;2023-04-03T01:28:45;22;19;
59546;PMS5003;45368;55.002;-1.592;2023-04-03T01:31:15;16;15;
59546;PMS5003;45368;55.002;-1.592;2023-04-03T01:33:48;26;21;
59546;PMS5003;45368;55.002;-1.592;2023-04-03T01:36:17;22;18;
59546;PMS5003;45368;55.002;-1.592;2023-04-03T01:38:46;29;25;
59546;PMS5003;45368;55.002;-1.592;2023-04-03T01:41:14;31;27;
59546;PMS5003;45368;55.002;-1.592;2023-04-03T01:43:41;14;13;
59546;PMS5003;45368;55.002;-1.592;2023-04-03T01:46:08;18;17;
59546;PMS5003;45368;55.002;-1.592;2023-04-03T01:48:36;16;16;
59546;PMS5003;45368;55.002;-1.592;2023-04-03T01:51:04;12;11;
59546;PMS5003;45368;55.002;-1.592;2023-04-03T01:53:31;9;9;
59546;PMS5003;45368;55.002;-1.592;2023-04-03T01:55:58;12;11;
59546;PMS5003;45368;55.002;-1.592;2023-04-03T01:58:25;10;9;
59546;PMS5003;45368;55.002;-1.592;2023-04-03T02:00:52;9;9;
59546;PMS5003;45368;55.002;-1.592;2023-04-03T02:03:19;9;9;
59546;PMS5003;45368;55.002;-1.592;2023-04-03T02:05:47;12;11;
59546;PMS5003;45368;55.002;-1.592;2023-04-03T02:08:15;11;11;
59546;PMS5003;45368;55.002;-1.592;2023-04-03T02:10:43;9;9;
59546;PMS5003;45368;55.002;-1.592;2023-04-03T02:13:10;12;11;
59546;PMS5003;45368;55.002;-1.592;2023-04-03T02:15:37;12;11;
59546;PMS5003;45368;55.002;-1.592;2023-04-03T02:18:04;9;8;
59546;PMS5003;45368;55.002;-1.592;2023-04-03T02:20:32;11;10;
59546;PMS5003;45368;55.002;-1.592;2023-04-03T02:22:59;12;11;
59546;PMS5003;45368;55.002;-1.592;2023-04-03T02:25:27;12;10;
59546;PMS5003;45368;55.002;-1.592;2023-04-03T02:27:55;11;10;
59546;PMS5003;45368;55.002;-1.592;2023-04-03T02:30:22;11;11;
59546;PMS5003;45368;55.002;-1.592;2023-04-03T02:32:49;9;8;
59546;PMS5003;45368;55.002;-1.592;2023-04-03T02:35:16;11;10;
59546;PMS5003;45368;55.002;-1.592;2023-04-03T02:37:43;11;9;
59546;PMS5003;45368;55.002;-1.592;2023-04-03T02:40:10;11;10;
59546;PMS5003;45368;55.002;-1.592;2023-04-03T02:42:38;13;10;
59546;PMS5003;45368;55.002;-1.592;2023-04-03T02:45:06;9;9;
59546;PMS5003;45368;55.002;-1.592;2023-04-03T02:47:34;10;10;
59546;PMS5003;45368;55.002;-1.592;2023-04-03T02:50:01;10;10;
59546;PMS5003;45368;55.002;-1.592;2023-04-03T02:52:28;13;12;
59546;PMS5003;45368;55.002;-1.592;2023-04-03T02:54:55;9;9;
59546;PMS5003;45368;55.002;-1.592;2023-04-03T02:57:22;10;9;
59546;PMS5003;45368;55.002;-1.592;2023-04-03T02:59:49;11;9;
59546;PMS5003;45368;55.002;-1.592;2023-04-03T03:02:16;10;10;
59546;PMS5003;45368;55.002;-1.592;2023-04-03T03:04:43;10;10;
59546;PMS5003;45368;55.002;-1.592;2023-04-03T03:07:10;15;12;
59546;PMS5003;45368;55.002;-1.592;2023-04-03T03:09:38;13;12;
59546;PMS5003;45368;55.002;-1.592;2023-04-03T03:12:05;12;12;
59546;PMS5003;45368;55.002;-1.592;2023-04-03T03:14:32;13;11;
59546;PMS5003;45368;55.002;-1.592;2023-04-03T03:16:59;15;15;
59546;PMS5003;45368;55.002;-1.592;2023-04-03T03:19:27;13;12;
59546;PMS5003;45368;55.002;-1.592;2023-04-03T03:21:53;11;10;
59546;PMS5003;45368;55.002;-1.592;2023-04-03T03:24:21;13;12;
59546;PMS5003;45368;55.002;-1.592;2023-04-03T03:26:48;13;12;
59546;PMS5003;45368;55.002;-1.592;2023-04-03T03:29:15;15;14;
59546;PMS5003;45368;55.002;-1.592;2023-04-03T03:31:42;10;9;
59546;PMS5003;45368;55.002;-1.592;2023-04-03T03:34:09;15;14;
59546;PMS5003;45368;55.002;-1.592;2023-04-03T03:36:36;16;16;
59546;PMS5003;45368;55.002;-1.592;2023-04-03T03:39:04;15;14;
59546;PMS5003;45368;55.002;-1.592;2023-04-03T03:41:31;18;15;
59546;PMS5003;45368;55.002;-1.592;2023-04-03T03:43:59;14;13;
59546;PMS5003;45368;55.002;-1.592;2023-04-03T03:46:26;13;13;
59546;PMS5003;45368;55.002;-1.592;2023-04-03T03:48:54;16;14;
59546;PMS5003;45368;55.002;-1.592;2023-04-03T03:51:21;16;14;
59546;PMS5003;45368;55.002;-1.592;2023-04-03T03:53:48;15;13;
59546;PMS5003;45368;55.002;-1.592;2023-04-03T03:56:16;11;10;
59546;PMS5003;45368;55.002;-1.592;2023-04-03T03:58:43;15;13;
59546;PMS5003;45368;55.002;-1.592;2023-04-03T04:01:10;13;13;
59546;PMS5003;45368;55.002;-1.592;2023-04-03T04:03:37;14;12;
59546;PMS5003;45368;55.002;-1.592;2023-04-03T04:06:04;12;12;
59546;PMS5003;45368;55.002;-1.592;2023-04-03T04:08:31;16;16;
59546;PMS5003;45368;55.002;-1.592;2023-04-03T04:10:58;14;14;
59546;PMS5003;45368;55.002;-1.592;2023-04-03T04:13:25;13;13;
59546;PMS5003;45368;55.002;-1.592;2023-04-03T04:15:52;15;14;
59546;PMS5003;45368;55.002;-1.592;2023-04-03T04:18:20;16;15;
59546;PMS5003;45368;55.002;-1.592;2023-04-03T04:20:47;17;16;
59546;PMS5003;45368;55.002;-1.592;2023-04-03T04:23:15;18;17;
59546;PMS5003;45368;55.002;-1.592;2023-04-03T04:25:43;18;16;
59546;PMS5003;45368;55.002;-1.592;2023-04-03T04:28:11;17;17;
59546;PMS5003;45368;55.002;-1.592;2023-04-03T04:30:38;15;15;
59546;PMS5003;45368;55.002;-1.592;2023-04-03T04:33:06;14;14;
59546;PMS5003;45368;55.002;-1.592;2023-04-03T04:35:34;18;16;
59546;PMS5003;45368;55.002;-1.592;2023-04-03T04:38:01;17;17;
59546;PMS5003;45368;55.002;-1.592;2023-04-03T04:40:29;15;14;
59546;PMS5003;45368;55.002;-1.592;2023-04-03T04:42:56;18;16;
59546;PMS5003;45368;55.002;-1.592;2023-04-03T04:45:24;15;13;
59546;PMS5003;45368;55.002;-1.592;2023-04-03T04:47:51;14;14;
59546;PMS5003;45368;55.002;-1.592;2023-04-03T04:50:20;14;14;
59546;PMS5003;45368;55.002;-1.592;2023-04-03T04:52:47;16;15;
59546;PMS5003;45368;55.002;-1.592;2023-04-03T04:55:17;16;16;
59546;PMS5003;45368;55.002;-1.592;2023-04-03T04:57:44;17;14;
59546;PMS5003;45368;55.002;-1.592;2023-04-03T05:00:12;13;13;
59546;PMS5003;45368;55.002;-1.592;2023-04-03T05:02:44;15;14;
59546;PMS5003;45368;55.002;-1.592;2023-04-03T05:05:11;19;18;
59546;PMS5003;45368;55.002;-1.592;2023-04-03T05:07:38;19;16;
59546;PMS5003;45368;55.002;-1.592;2023-04-03T05:10:06;18;17;
59546;PMS5003;45368;55.002;-1.592;2023-04-03T05:12:34;20;19;
59546;PMS5003;45368;55.002;-1.592;2023-04-03T05:15:02;18;15;
59546;PMS5003;45368;55.002;-1.592;2023-04-03T05:17:30;21;18;
59546;PMS5003;45368;55.002;-1.592;2023-04-03T05:19:58;19;17;
59546;PMS5003;45368;55.002;-1.592;2023-04-03T05:22:25;21;18;
59546;PMS5003;45368;55.002;-1.592;2023-04-03T05:24:52;19;18;
59546;PMS5003;45368;55.002;-1.592;2023-04-03T05:27:20;22;21;
59546;PMS5003;45368;55.002;-1.592;2023-04-03T05:29:47;18;16;
59546;PMS5003;45368;55.002;-1.592;2023-04-03T05:32:14;15;15;
59546;PMS5003;45368;55.002;-1.592;2023-04-03T05:34:41;17;17;
59546;PMS5003;45368;55.002;-1.592;2023-04-03T05:37:08;19;19;
59546;PMS5003;45368;55.002;-1.592;2023-04-03T05:39:35;20;18;
59546;PMS5003;45368;55.002;-1.592;2023-04-03T05:42:03;19;18;
59546;PMS5003;45368;55.002;-1.592;2023-04-03T05:44:31;20;18;
59546;PMS5003;45368;55.002;-1.592;2023-04-03T05:46:58;19;18;
59546;PMS5003;45368;55.002;-1.592;2023-04-03T05:49:25;19;18;
59546;PMS5003;45368;55.002;-1.592;2023-04-03T05:51:52;22;21;
59546;PMS5003;45368;55.002;-1.592;2023-04-03T05:54:21;20;20;
59546;PMS5003;45368;55.002;-1.592;2023-04-03T05:56:51;23;22;
59546;PMS5003;45368;55.002;-1.592;2023-04-03T05:59:19;21;20;
59546;PMS5003;45368;55.002;-1.592;2023-04-03T06:01:47;21;21;
59546;PMS5003;45368;55.002;-1.592;2023-04-03T06:04:15;23;21;
59546;PMS5003;45368;55.002;-1.592;2023-04-03T06:06:44;22;19;
59546;PMS5003;45368;55.002;-1.592;2023-04-03T06:09:12;24;22;
59546;PMS5003;45368;55.002;-1.592;2023-04-03T06:11:40;23;20;
59546;PMS5003;45368;55.002;-1.592;2023-04-03T06:14:08;22;21;
59546;PMS5003;45368;55.002;-1.592;2023-04-03T06:16:36;22;19;
59546;PMS5003;45368;55.002;-1.592;2023-04-03T06:19:04;23;20;
59546;PMS5003;45368;55.002;-1.592;2023-04-03T06:21:31;26;24;
59546;PMS5003;45368;55.002;-1.592;2023-04-03T06:23:59;23;20;
59546;PMS5003;45368;55.002;-1.592;2023-04-03T06:26:26;22;20;
59546;PMS5003;45368;55.002;-1.592;2023-04-03T06:28:54;23;21;
59546;PMS5003;45368;55.002;-1.592;2023-04-03T06:31:21;27;24;
59546;PMS5003;45368;55.002;-1.592;2023-04-03T06:33:49;23;22;
59546;PMS5003;45368;55.002;-1.592;2023-04-03T06:36:18;25;22;
59546;PMS5003;45368;55.002;-1.592;2023-04-03T06:38:45;20;20;
59546;PMS5003;45368;55.002;-1.592;2023-04-03T06:41:13;24;22;
59546;PMS5003;45368;55.002;-1.592;2023-04-03T06:43:41;21;21;
59546;PMS5003;45368;55.002;-1.592;2023-04-03T06:46:12;25;24;
59546;PMS5003;45368;55.002;-1.592;2023-04-03T06:48:40;24;20;
59546;PMS5003;45368;55.002;-1.592;2023-04-03T06:51:10;28;25;
59546;PMS5003;45368;55.002;-1.592;2023-04-03T06:53:43;21;21;
59546;PMS5003;45368;55.002;-1.592;2023-04-03T06:56:10;24;23;
59546;PMS5003;45368;55.002;-1.592;2023-04-03T06:58:38;23;20;
59546;PMS5003;45368;55.002;-1.592;2023-04-03T07:01:05;21;20;
59546;PMS5003;45368;55.002;-1.592;2023-04-03T07:03:34;22;20;
59546;PMS5003;45368;55.002;-1.592;2023-04-03T07:06:01;21;21;
59546;PMS5003;45368;55.002;-1.592;2023-04-03T07:08:29;23;21;
59546;PMS5003;45368;55.002;-1.592;2023-04-03T07:10:56;21;20;
59546;PMS5003;45368;55.002;-1.592;2023-04-03T07:13:23;22;20;
59546;PMS5003;45368;55.002;-1.592;2023-04-03T07:15:51;22;18;
59546;PMS5003;45368;55.002;-1.592;2023-04-03T07:18:19;20;17;
59546;PMS5003;45368;55.002;-1.592;2023-04-03T07:20:46;19;18;
59546;PMS5003;45368;55.002;-1.592;2023-04-03T07:23:13;14;13;
59546;PMS5003;45368;55.002;-1.592;2023-04-03T07:25:42;14;13;
59546;PMS5003;45368;55.002;-1.592;2023-04-03T07:28:09;14;14;
59546;PMS5003;45368;55.002;-1.592;2023-04-03T07:30:41;16;13;
59546;PMS5003;45368;55.002;-1.592;2023-04-03T07:33:09;14;13;
59546;PMS5003;45368;55.002;-1.592;2023-04-03T07:35:36;14;12;
59546;PMS5003;45368;55.002;-1.592;2023-04-03T07:38:03;13;12;
59546;PMS5003;45368;55.002;-1.592;2023-04-03T07:40:31;15;14;
59546;PMS5003;45368;55.002;-1.592;2023-04-03T07:40:32;15;14;
59546;PMS5003;45368;55.002;-1.592;2023-04-03T07:43:00;17;15;
59546;PMS5003;45368;55.002;-1.592;2023-04-03T07:45:27;16;15;
59546;PMS5003;45368;55.002;-1.592;2023-04-03T07:47:55;11;11;
59546;PMS5003;45368;55.002;-1.592;2023-04-03T07:50:22;12;11;
59546;PMS5003;45368;55.002;-1.592;2023-04-03T07:52:50;13;12;
59546;PMS5003;45368;55.002;-1.592;2023-04-03T07:55:17;11;10;
59546;PMS5003;45368;55.002;-1.592;2023-04-03T07:57:49;10;9;
59546;PMS5003;45368;55.002;-1.592;2023-04-03T08:00:16;12;11;
59546;PMS5003;45368;55.002;-1.592;2023-04-03T08:02:44;11;11;
59546;PMS5003;45368;55.002;-1.592;2023-04-03T08:05:11;12;11;
59546;PMS5003;45368;55.002;-1.592;2023-04-03T08:07:38;12;10;
59546;PMS5003;45368;55.002;-1.592;2023-04-03T08:10:06;9;7;
59546;PMS5003;45368;55.002;-1.592;2023-04-03T08:12:33;8;8;
59546;PMS5003;45368;55.002;-1.592;2023-04-03T08:15:00;7;7;
59546;PMS5003;45368;55.002;-1.592;2023-04-03T08:17:27;7;6;
59546;PMS5003;45368;55.002;-1.592;2023-04-03T08:19:54;4;4;
59546;PMS5003;45368;55.002;-1.592;2023-04-03T08:22:21;5;5;
59546;PMS5003;45368;55.002;-1.592;2023-04-03T08:24:49;4;4;
59546;PMS5003;45368;55.002;-1.592;2023-04-03T08:27:16;8;5;
59546;PMS5003;45368;55.002;-1.592;2023-04-03T08:29:43;4;3;
59546;PMS5003;45368;55.002;-1.592;2023-04-03T08:32:10;5;4;
59546;PMS5003;45368;55.002;-1.592;2023-04-03T08:34:37;5;5;
59546;PMS5003;45368;55.002;-1.592;2023-04-03T08:37:04;3;2;
59546;PMS5003;45368;55.002;-1.592;2023-04-03T08:39:32;5;4;
59546;PMS5003;45368;55.002;-1.592;2023-04-03T08:41:59;2;2;
59546;PMS5003;45368;55.002;-1.592;2023-04-03T08:44:38;3;3;
59546;PMS5003;45368;55.002;-1.592;2023-04-03T08:47:15;2;2;
59546;PMS5003;45368;55.002;-1.592;2023-04-03T08:49:50;4;2;
59546;PMS5003;45368;55.002;-1.592;2023-04-03T08:52:24;5;4;
59546;PMS5003;45368;55.002;-1.592;2023-04-03T08:55:01;4;2;
59546;PMS5003;45368;55.002;-1.592;2023-04-03T08:57:32;2;2;
59546;PMS5003;45368;55.002;-1.592;2023-04-03T09:00:04;2;2;
59546;PMS5003;45368;55.002;-1.592;2023-04-03T09:02:40;3;2;
59546;PMS5003;45368;55.002;-1.592;2023-04-03T09:05:11;4;3;
59546;PMS5003;45368;55.002;-1.592;2023-04-03T09:07:43;2;1;
59546;PMS5003;45368;55.002;-1.592;2023-04-03T09:10:14;4;3;
59546;PMS5003;45368;55.002;-1.592;2023-04-03T09:12:57;4;4;
59546;PMS5003;45368;55.002;-1.592;2023-04-03T09:15:31;2;1;
59546;PMS5003;45368;55.002;-1.592;2023-04-03T09:18:00;2;1;
59546;PMS5003;45368;55.002;-1.592;2023-04-03T09:20:37;4;2;
59546;PMS5003;45368;55.002;-1.592;2023-04-03T09:23:14;1;0;
59546;PMS5003;45368;55.002;-1.592;2023-04-03T09:25:47;2;1;
59546;PMS5003;45368;55.002;-1.592;2023-04-03T09:28:16;2;1;
59546;PMS5003;45368;55.002;-1.592;2023-04-03T09:30:43;2;2;
59546;PMS5003;45368;55.002;-1.592;2023-04-03T09:33:11;3;2;
59546;PMS5003;45368;55.002;-1.592;2023-04-03T09:35:41;2;2;
59546;PMS5003;45368;55.002;-1.592;2023-04-03T09:38:17;3;1;
59546;PMS5003;45368;55.002;-1.592;2023-04-03T09:40:47;2;2;
59546;PMS5003;45368;55.002;-1.592;2023-04-03T09:43:21;2;1;
59546;PMS5003;45368;55.002;-1.592;2023-04-03T09:45:54;1;0;
59546;PMS5003;45368;55.002;-1.592;2023-04-03T09:48:23;5;5;
59546;PMS5003;45368;55.002;-1.592;2023-04-03T09:50:54;4;2;
59546;PMS5003;45368;55.002;-1.592;2023-04-03T09:53:27;2;2;
59546;PMS5003;45368;55.002;-1.592;2023-04-03T09:55:56;1;1;
59546;PMS5003;45368;55.002;-1.592;2023-04-03T09:58:25;2;0;
59546;PMS5003;45368;55.002;-1.592;2023-04-03T10:00:55;2;2;
59546;PMS5003;45368;55.002;-1.592;2023-04-03T10:03:25;1;0;
59546;PMS5003;45368;55.002;-1.592;2023-04-03T10:05:56;1;1;
59546;PMS5003;45368;55.002;-1.592;2023-04-03T10:08:27;2;1;
59546;PMS5003;45368;55.002;-1.592;2023-04-03T10:11:13;1;1;
59546;PMS5003;45368;55.002;-1.592;2023-04-03T10:13:57;3;1;
59546;PMS5003;45368;55.002;-1.592;2023-04-03T10:16:34;2;1;
59546;PMS5003;45368;55.002;-1.592;2023-04-03T10:19:11;1;1;
59546;PMS5003;45368;55.002;-1.592;2023-04-03T10:21:53;3;2;
59546;PMS5003;45368;55.002;-1.592;2023-04-03T10:24:33;2;2;
59546;PMS5003;45368;55.002;-1.592;2023-04-03T10:27:13;1;1;
59546;PMS5003;45368;55.002;-1.592;2023-04-03T10:29:51;3;3;
59546;PMS5003;45368;55.002;-1.592;2023-04-03T10:32:43;1;1;
59546;PMS5003;45368;55.002;-1.592;2023-04-03T10:35:18;0;0;
59546;PMS5003;45368;55.002;-1.592;2023-04-03T10:38:01;1;0;
59546;PMS5003;45368;55.002;-1.592;2023-04-03T10:40:35;2;1;
59546;PMS5003;45368;55.002;-1.592;2023-04-03T10:43:15;1;1;
59546;PMS5003;45368;55.002;-1.592;2023-04-03T10:45:53;2;2;
59546;PMS5003;45368;55.002;-1.592;2023-04-03T10:48:34;3;3;
59546;PMS5003;45368;55.002;-1.592;2023-04-03T10:51:14;3;3;
59546;PMS5003;45368;55.002;-1.592;2023-04-03T10:53:51;4;3;
59546;PMS5003;45368;55.002;-1.592;2023-04-03T10:56:30;3;2;
59546;PMS5003;45368;55.002;-1.592;2023-04-03T10:59:11;3;2;
59546;PMS5003;45368;55.002;-1.592;2023-04-03T11:01:51;4;4;
59546;PMS5003;45368;55.002;-1.592;2023-04-03T11:04:25;3;2;
59546;PMS5003;45368;55.002;-1.592;2023-04-03T11:09:14;1;1;
59546;PMS5003;45368;55.002;-1.592;2023-04-03T11:11:55;3;2;
59546;PMS5003;45368;55.002;-1.592;2023-04-03T11:14:32;6;4;
59546;PMS5003;45368;55.002;-1.592;2023-04-03T11:17:05;4;2;
59546;PMS5003;45368;55.002;-1.592;2023-04-03T11:19:43;3;3;
59546;PMS5003;45368;55.002;-1.592;2023-04-03T11:22:17;3;2;
59546;PMS5003;45368;55.002;-1.592;2023-04-03T11:24:54;6;3;
59546;PMS5003;45368;55.002;-1.592;2023-04-03T11:27:25;3;3;
59546;PMS5003;45368;55.002;-1.592;2023-04-03T11:29:57;5;5;
59546;PMS5003;45368;55.002;-1.592;2023-04-03T11:32:32;2;2;
59546;PMS5003;45368;55.002;-1.592;2023-04-03T11:35:13;4;3;
59546;PMS5003;45368;55.002;-1.592;2023-04-03T11:37:43;4;3;
59546;PMS5003;45368;55.002;-1.592;2023-04-03T11:40:20;5;5;
59546;PMS5003;45368;55.002;-1.592;2023-04-03T11:43:03;5;5;
59546;PMS5003;45368;55.002;-1.592;2023-04-03T11:45:36;1;1;
59546;PMS5003;45368;55.002;-1.592;2023-04-03T11:48:06;4;1;
59546;PMS5003;45368;55.002;-1.592;2023-04-03T11:51:46;3;2;
59546;PMS5003;45368;55.002;-1.592;2023-04-03T11:55:35;3;2;
59546;PMS5003;45368;55.002;-1.592;2023-04-03T11:58:12;2;2;
59546;PMS5003;45368;55.002;-1.592;2023-04-03T12:00:50;2;1;
59546;PMS5003;45368;55.002;-1.592;2023-04-03T12:04:06;4;3;
59546;PMS5003;45368;55.002;-1.592;2023-04-03T12:06:50;1;1;
59546;PMS5003;45368;55.002;-1.592;2023-04-03T12:09:27;3;2;
59546;PMS5003;45368;55.002;-1.592;2023-04-03T12:11:56;3;1;
59546;PMS5003;45368;55.002;-1.592;2023-04-03T12:14:26;2;2;
59546;PMS5003;45368;55.002;-1.592;2023-04-03T12:16:55;1;1;
59546;PMS5003;45368;55.002;-1.592;2023-04-03T12:19:32;1;1;
59546;PMS5003;45368;55.002;-1.592;2023-04-03T12:22:17;2;2;
59546;PMS5003;45368;55.002;-1.592;2023-04-03T12:24:47;1;0;
59546;PMS5003;45368;55.002;-1.592;2023-04-03T12:27:20;4;2;
59546;PMS5003;45368;55.002;-1.592;2023-04-03T12:30:01;2;1;
59546;PMS5003;45368;55.002;-1.592;2023-04-03T12:32:43;2;2;
59546;PMS5003;45368;55.002;-1.592;2023-04-03T12:35:31;2;1;
59546;PMS5003;45368;55.002;-1.592;2023-04-03T12:38:16;1;0;
59546;PMS5003;45368;55.002;-1.592;2023-04-03T12:40:57;1;1;
59546;PMS5003;45368;55.002;-1.592;2023-04-03T12:43:35;2;0;
59546;PMS5003;45368;55.002;-1.592;2023-04-03T12:46:12;2;1;
59546;PMS5003;45368;55.002;-1.592;2023-04-03T12:48:47;1;0;
59546;PMS5003;45368;55.002;-1.592;2023-04-03T12:51:18;2;1;
59546;PMS5003;45368;55.002;-1.592;2023-04-03T12:53:49;2;2;
59546;PMS5003;45368;55.002;-1.592;2023-04-03T12:56:22;2;2;
59546;PMS5003;45368;55.002;-1.592;2023-04-03T12:58:52;1;1;
59546;PMS5003;45368;55.002;-1.592;2023-04-03T13:01:21;1;1;
59546;PMS5003;45368;55.002;-1.592;2023-04-03T13:03:52;1;1;
59546;PMS5003;45368;55.002;-1.592;2023-04-03T13:06:22;2;1;
59546;PMS5003;45368;55.002;-1.592;2023-04-03T13:08:53;2;1;
59546;PMS5003;45368;55.002;-1.592;2023-04-03T13:11:23;1;1;
59546;PMS5003;45368;55.002;-1.592;2023-04-03T13:13:54;1;1;
59546;PMS5003;45368;55.002;-1.592;2023-04-03T13:16:22;3;2;
59546;PMS5003;45368;55.002;-1.592;2023-04-03T13:18:51;1;1;
59546;PMS5003;45368;55.002;-1.592;2023-04-03T13:21:20;3;2;
59546;PMS5003;45368;55.002;-1.592;2023-04-03T13:23:52;1;1;
59546;PMS5003;45368;55.002;-1.592;2023-04-03T13:26:24;1;1;
59546;PMS5003;45368;55.002;-1.592;2023-04-03T13:28:52;2;1;
59546;PMS5003;45368;55.002;-1.592;2023-04-03T13:31:22;3;2;
59546;PMS5003;45368;55.002;-1.592;2023-04-03T13:33:54;1;1;
59546;PMS5003;45368;55.002;-1.592;2023-04-03T13:36:25;2;1;
59546;PMS5003;45368;55.002;-1.592;2023-04-03T13:39:00;3;2;
59546;PMS5003;45368;55.002;-1.592;2023-04-03T13:41:31;0;0;
59546;PMS5003;45368;55.002;-1.592;2023-04-03T13:44:24;3;3;
59546;PMS5003;45368;55.002;-1.592;2023-04-03T13:46:56;2;2;
59546;PMS5003;45368;55.002;-1.592;2023-04-03T13:49:29;3;2;
59546;PMS5003;45368;55.002;-1.592;2023-04-03T13:52:00;2;2;
59546;PMS5003;45368;55.002;-1.592;2023-04-03T13:54:31;3;3;
59546;PMS5003;45368;55.002;-1.592;2023-04-03T13:57:01;3;3;
59546;PMS5003;45368;55.002;-1.592;2023-04-03T13:59:30;4;4;
59546;PMS5003;45368;55.002;-1.592;2023-04-03T14:02:12;3;3;
59546;PMS5003;45368;55.002;-1.592;2023-04-03T14:04:46;3;2;
59546;PMS5003;45368;55.002;-1.592;2023-04-03T14:07:16;2;2;
59546;PMS5003;45368;55.002;-1.592;2023-04-03T14:09:44;5;5;
59546;PMS5003;45368;55.002;-1.592;2023-04-03T14:12:13;5;3;
59546;PMS5003;45368;55.002;-1.592;2023-04-03T14:14:45;4;2;
59546;PMS5003;45368;55.002;-1.592;2023-04-03T14:17:14;4;4;
59546;PMS5003;45368;55.002;-1.592;2023-04-03T14:19:44;3;3;
59546;PMS5003;45368;55.002;-1.592;2023-04-03T14:22:17;4;3;
59546;PMS5003;45368;55.002;-1.592;2023-04-03T14:24:47;3;3;
59546;PMS5003;45368;55.002;-1.592;2023-04-03T14:27:17;5;3;
59546;PMS5003;45368;55.002;-1.592;2023-04-03T14:29:48;3;3;
59546;PMS5003;45368;55.002;-1.592;2023-04-03T14:32:17;5;4;
59546;PMS5003;45368;55.002;-1.592;2023-04-03T14:34:46;5;4;
59546;PMS5003;45368;55.002;-1.592;2023-04-03T14:37:15;5;3;
59546;PMS5003;45368;55.002;-1.592;2023-04-03T14:39:44;3;3;
59546;PMS5003;45368;55.002;-1.592;2023-04-03T14:42:14;3;2;
59546;PMS5003;45368;55.002;-1.592;2023-04-03T14:44:45;5;3;
59546;PMS5003;45368;55.002;-1.592;2023-04-03T14:47:13;4;3;
59546;PMS5003;45368;55.002;-1.592;2023-04-03T14:49:42;4;3;
59546;PMS5003;45368;55.002;-1.592;2023-04-03T14:52:16;6;5;
59546;PMS5003;45368;55.002;-1.592;2023-04-03T14:54:46;4;3;
59546;PMS5003;45368;55.002;-1.592;2023-04-03T14:57:14;4;4;
59546;PMS5003;45368;55.002;-1.592;2023-04-03T14:59:42;3;2;
59546;PMS5003;45368;55.002;-1.592;2023-04-03T15:02:19;4;4;
59546;PMS5003;45368;55.002;-1.592;2023-04-03T15:04:53;5;3;
59546;PMS5003;45368;55.002;-1.592;2023-04-03T15:07:20;5;4;
59546;PMS5003;45368;55.002;-1.592;2023-04-03T15:09:48;7;3;
59546;PMS5003;45368;55.002;-1.592;2023-04-03T15:12:17;3;3;
59546;PMS5003;45368;55.002;-1.592;2023-04-03T15:14:44;5;5;
59546;PMS5003;45368;55.002;-1.592;2023-04-03T15:17:13;5;5;
59546;PMS5003;45368;55.002;-1.592;2023-04-03T15:19:43;3;2;
59546;PMS5003;45368;55.002;-1.592;2023-04-03T15:22:13;5;5;
59546;PMS5003;45368;55.002;-1.592;2023-04-03T15:24:42;5;3;
59546;PMS5003;45368;55.002;-1.592;2023-04-03T15:27:10;6;3;
59546;PMS5003;45368;55.002;-1.592;2023-04-03T15:29:39;5;4;
59546;PMS5003;45368;55.002;-1.592;2023-04-03T15:32:08;4;4;
59546;PMS5003;45368;55.002;-1.592;2023-04-03T15:34:36;4;3;
59546;PMS5003;45368;55.002;-1.592;2023-04-03T15:37:05;6;4;
59546;PMS5003;45368;55.002;-1.592;2023-04-03T15:39:32;9;5;
59546;PMS5003;45368;55.002;-1.592;2023-04-03T15:42:00;7;4;
59546;PMS5003;45368;55.002;-1.592;2023-04-03T15:44:28;4;3;
59546;PMS5003;45368;55.002;-1.592;2023-04-03T15:46:55;5;3;
59546;PMS5003;45368;55.002;-1.592;2023-04-03T15:50:29;3;3;
59546;PMS5003;45368;55.002;-1.592;2023-04-03T15:53:03;3;3;
59546;PMS5003;45368;55.002;-1.592;2023-04-03T15:55:36;2;2;
59546;PMS5003;45368;55.002;-1.592;2023-04-03T15:58:04;6;4;
59546;PMS5003;45368;55.002;-1.592;2023-04-03T16:00:38;5;5;
59546;PMS5003;45368;55.002;-1.592;2023-04-03T16:03:10;6;4;
59546;PMS5003;45368;55.002;-1.592;2023-04-03T16:06:25;7;5;
59546;PMS5003;45368;55.002;-1.592;2023-04-03T16:09:12;6;4;
59546;PMS5003;45368;55.002;-1.592;2023-04-03T16:11:40;4;4;
59546;PMS5003;45368;55.002;-1.592;2023-04-03T16:14:07;7;6;
59546;PMS5003;45368;55.002;-1.592;2023-04-03T16:16:35;4;3;
59546;PMS5003;45368;55.002;-1.592;2023-04-03T16:19:04;4;4;
59546;PMS5003;45368;55.002;-1.592;2023-04-03T16:21:32;4;3;
59546;PMS5003;45368;55.002;-1.592;2023-04-03T16:23:59;7;5;
59546;PMS5003;45368;55.002;-1.592;2023-04-03T16:26:28;4;4;
59546;PMS5003;45368;55.002;-1.592;2023-04-03T16:28:56;4;4;
59546;PMS5003;45368;55.002;-1.592;2023-04-03T16:31:23;9;8;
59546;PMS5003;45368;55.002;-1.592;2023-04-03T16:33:52;6;6;
59546;PMS5003;45368;55.002;-1.592;2023-04-03T16:36:20;4;4;
59546;PMS5003;45368;55.002;-1.592;2023-04-03T16:38:47;6;4;
59546;PMS5003;45368;55.002;-1.592;2023-04-03T16:41:14;6;5;
59546;PMS5003;45368;55.002;-1.592;2023-04-03T16:43:41;6;5;
59546;PMS5003;45368;55.002;-1.592;2023-04-03T16:46:08;4;4;